createdAt,value
2022-12-17T00:01:18.531Z,101788.47
2022-12-17T00:04:04.379Z,101792.28
2022-12-17T00:06:50.119Z,101784.56
2022-12-17T00:09:35.068Z,101794.66
2022-12-17T00:12:20.198Z,101793.25
2022-12-17T00:15:05.101Z,101800.84
2022-12-17T00:17:50.135Z,101792.66
2022-12-17T00:20:34.852Z,101801.09
2022-12-17T00:23:22.147Z,101796.59
2022-12-17T00:26:11.238Z,101814.84
2022-12-17T00:28:56.966Z,101808.66
2022-12-17T00:31:42.820Z,101816.53
2022-12-17T00:34:27.672Z,101817.22
2022-12-17T00:37:12.538Z,101814.88
2022-12-17T00:39:59.383Z,101809.38
2022-12-17T00:42:44.498Z,101817.66
2022-12-17T00:45:29.448Z,101815.69
2022-12-17T00:48:14.178Z,101816.97
2022-12-17T00:50:59.181Z,101813.47
2022-12-17T00:53:44.015Z,101808.13
2022-12-17T00:56:29.334Z,101811.06
2022-12-17T00:59:14.278Z,101808.69
2022-12-17T01:01:59.278Z,101809.69
2022-12-17T01:04:44.443Z,101818.50
2022-12-17T01:07:29.724Z,101822.56
2022-12-17T01:10:14.524Z,101815.97
2022-12-17T01:12:59.671Z,101817.78
2022-12-17T01:15:44.724Z,101823.25
2022-12-17T01:18:37.218Z,101831.94
2022-12-17T01:21:26.977Z,101834.47
2022-12-17T01:24:11.799Z,101834.47
2022-12-17T01:26:56.697Z,101838.28
2022-12-17T01:29:41.474Z,101833.91
2022-12-17T01:32:26.242Z,101842.03
2022-12-17T01:35:11.098Z,101849.63
2022-12-17T01:37:56.183Z,101846.28
2022-12-17T01:40:40.989Z,101851.59
2022-12-17T01:43:30.554Z,101853.84
2022-12-17T01:46:16.778Z,101858.59
2022-12-17T01:49:04.600Z,101856.22
2022-12-17T01:52:00.989Z,101862.25
2022-12-17T01:54:46.151Z,101869.81
2022-12-17T01:57:31.553Z,101867.72
2022-12-17T02:00:25.426Z,101869.56
2022-12-17T02:03:10.626Z,101871.22
2022-12-17T02:06:03.647Z,101871.78
2022-12-17T02:09:10.361Z,101874.56
2022-12-17T02:12:17.592Z,101877.66
2022-12-17T02:15:40.601Z,101877.09
2022-12-17T02:18:31.984Z,101871.91
2022-12-17T02:21:18.292Z,101878.69
2022-12-17T02:24:06.078Z,101880.19
2022-12-17T02:27:09.971Z,101882.72
2022-12-17T02:30:02.505Z,101889.41
2022-12-17T02:32:49.133Z,101886.88
2022-12-17T02:35:36.736Z,101879.59
2022-12-17T02:38:35.387Z,101887.88
2022-12-17T02:41:22.891Z,101893.22
2022-12-17T02:44:08.581Z,101898.13
2022-12-17T02:46:53.824Z,101901.47
2022-12-17T02:49:38.737Z,101907.59
2022-12-17T02:52:24.260Z,101900.31
2022-12-17T02:55:09.087Z,101907.22
2022-12-17T02:57:55.827Z,101909.34
2022-12-17T03:00:40.546Z,101907.94
2022-12-17T03:03:25.839Z,101912.09
2022-12-17T03:06:10.638Z,101914.50
2022-12-17T03:08:55.478Z,101917.19
2022-12-17T03:11:40.452Z,101913.81
2022-12-17T03:14:25.058Z,101921.31
2022-12-17T03:17:10.237Z,101918.25
2022-12-17T03:19:58.167Z,101928.19
2022-12-17T03:22:43.286Z,101931.38
2022-12-17T03:25:28.130Z,101927.06
2022-12-17T03:28:12.987Z,101921.41
2022-12-17T03:30:57.951Z,101919.63
2022-12-17T03:33:43.037Z,101924.94
2022-12-17T03:36:27.939Z,101933.63
2022-12-17T03:39:13.006Z,101936.28
2022-12-17T03:41:57.859Z,101931.69
2022-12-17T03:44:42.797Z,101943.13
2022-12-17T03:47:27.602Z,101931.63
2022-12-17T03:50:12.364Z,101929.06
2022-12-17T03:52:57.279Z,101938.59
2022-12-17T03:55:42.394Z,101937.75
2022-12-17T03:58:27.074Z,101938.16
2022-12-17T04:01:12.088Z,101939.41
2022-12-17T04:03:57.369Z,101938.22
2022-12-17T04:06:42.305Z,101935.44
2022-12-17T04:09:27.042Z,101940.44
2022-12-17T04:12:11.748Z,101940.44
2022-12-17T04:14:57.203Z,101941.66
2022-12-17T04:17:42.006Z,101947.97
2022-12-17T04:20:26.977Z,101948.63
2022-12-17T04:23:12.014Z,101955.78
2022-12-17T04:25:57.087Z,101959.09
2022-12-17T04:28:42.267Z,101959.69
2022-12-17T04:31:27.324Z,101960.75
2022-12-17T04:34:12.418Z,101952.34
2022-12-17T04:36:58.195Z,101956.09
2022-12-17T04:39:43.264Z,101967.72
2022-12-17T04:42:28.573Z,101974.78
2022-12-17T04:45:13.531Z,101967.94
2022-12-17T04:47:58.748Z,101981.03
2022-12-17T04:50:43.672Z,101973.72
2022-12-17T04:53:28.959Z,101979.91
2022-12-17T04:56:14.708Z,101990.44
2022-12-17T04:59:00.126Z,101990.53
2022-12-17T05:01:45.159Z,101991.00
2022-12-17T05:04:29.999Z,102000.19
2022-12-17T05:07:14.875Z,102007.94
2022-12-17T05:09:59.715Z,102004.34
2022-12-17T05:12:44.830Z,102002.66
2022-12-17T05:15:29.840Z,102002.94
2022-12-17T05:18:23.543Z,102014.53
2022-12-17T05:21:08.397Z,102023.47
2022-12-17T05:23:53.504Z,102009.13
2022-12-17T05:26:43.751Z,102011.66
2022-12-17T05:29:30.388Z,102016.22
2022-12-17T05:32:15.746Z,102017.81
2022-12-17T05:35:00.513Z,102015.53
2022-12-17T05:37:45.223Z,102019.41
2022-12-17T05:40:30.786Z,102016.69
2022-12-17T05:43:22.498Z,102021.97
2022-12-17T05:46:08.234Z,102026.19
2022-12-17T05:48:53.753Z,102023.31
2022-12-17T05:51:39.692Z,102019.22
2022-12-17T05:54:25.115Z,102025.34
2022-12-17T05:57:10.426Z,102024.88
2022-12-17T05:59:55.649Z,102036.44
2022-12-17T06:02:40.792Z,102034.16
2022-12-17T06:05:26.373Z,102028.47
2022-12-17T06:08:11.293Z,102044.28
2022-12-17T06:10:56.319Z,102055.63
2022-12-17T06:13:41.055Z,102057.94
2022-12-17T06:16:25.994Z,102062.38
2022-12-17T06:19:11.294Z,102056.13
2022-12-17T06:21:55.975Z,102066.94
2022-12-17T06:24:45.755Z,102065.28
2022-12-17T06:27:31.630Z,102054.88
2022-12-17T06:30:18.915Z,102060.44
2022-12-17T06:33:04.682Z,102062.38
2022-12-17T06:35:49.545Z,102059.72
2022-12-17T06:38:34.340Z,102069.00
2022-12-17T06:41:20.372Z,102073.72
2022-12-17T06:44:05.091Z,102072.59
2022-12-17T06:46:50.252Z,102080.59
2022-12-17T06:49:35.086Z,102088.94
2022-12-17T06:52:20.298Z,102091.78
2022-12-17T06:55:05.593Z,102098.94
2022-12-17T06:57:50.804Z,102099.00
2022-12-17T07:00:36.303Z,102106.22
2022-12-17T07:03:24.299Z,102102.13
2022-12-17T07:06:09.058Z,102101.50
2022-12-17T07:08:54.025Z,102096.09
2022-12-17T07:11:39.265Z,102110.44
2022-12-17T07:14:24.464Z,102106.91
2022-12-17T07:17:09.533Z,102106.22
2022-12-17T07:19:54.447Z,102113.47
2022-12-17T07:22:39.297Z,102120.50
2022-12-17T07:25:24.651Z,102113.31
2022-12-17T07:28:16.161Z,102127.69
2022-12-17T07:31:01.092Z,102128.38
2022-12-17T07:33:45.971Z,102133.41
2022-12-17T07:36:30.809Z,102135.72
2022-12-17T07:39:15.579Z,102137.69
2022-12-17T07:42:00.472Z,102137.13
2022-12-17T07:44:45.232Z,102142.09
2022-12-17T07:47:30.026Z,102147.97
2022-12-17T07:50:14.807Z,102145.16
2022-12-17T07:52:59.658Z,102148.28
2022-12-17T07:55:44.738Z,102147.22
2022-12-17T07:58:30.225Z,102153.03
2022-12-17T08:01:19.250Z,102158.22
2022-12-17T08:04:04.292Z,102167.31
2022-12-17T08:06:48.987Z,102169.72
2022-12-17T08:09:33.897Z,102163.53
2022-12-17T08:12:18.673Z,102168.59
2022-12-17T08:15:03.385Z,102181.16
2022-12-17T08:17:48.075Z,102183.50
2022-12-17T08:20:33.147Z,102191.53
2022-12-17T08:23:22.144Z,102198.88
2022-12-17T08:26:07.141Z,102205.44
2022-12-17T08:28:52.163Z,102195.88
2022-12-17T08:31:38.575Z,102196.47
2022-12-17T08:34:23.503Z,102202.16
2022-12-17T08:37:08.468Z,102204.41
2022-12-17T08:39:53.126Z,102203.34
2022-12-17T08:42:37.962Z,102197.59
2022-12-17T08:45:23.452Z,102198.19
2022-12-17T08:48:08.390Z,102188.09
2022-12-17T08:50:53.256Z,102196.91
2022-12-17T08:53:38.330Z,102208.88
2022-12-17T08:56:23.954Z,102209.41
2022-12-17T08:59:08.642Z,102208.31
2022-12-17T09:01:53.452Z,102212.88
2022-12-17T09:04:38.229Z,102216.34
2022-12-17T09:07:23.075Z,102200.16
2022-12-17T09:10:07.814Z,102207.97
2022-12-17T09:12:52.575Z,102208.94
2022-12-17T09:15:37.575Z,102207.75
2022-12-17T09:18:22.991Z,102207.53
2022-12-17T09:21:14.728Z,102211.97
2022-12-17T09:24:00.037Z,102210.69
2022-12-17T09:26:45.000Z,102207.28
2022-12-17T09:29:29.823Z,102212.13
2022-12-17T09:32:14.654Z,102218.16
2022-12-17T09:34:59.474Z,102209.31
2022-12-17T09:37:44.683Z,102218.97
2022-12-17T09:40:37.029Z,102220.09
2022-12-17T09:43:33.542Z,102226.13
2022-12-17T09:46:32.042Z,102233.41
2022-12-17T09:49:27.473Z,102240.75
2022-12-17T09:52:12.902Z,102228.47
2022-12-17T09:55:08.535Z,102232.06
2022-12-17T09:57:55.516Z,102239.66
2022-12-17T10:00:44.026Z,102232.91
2022-12-17T10:03:32.680Z,102239.44
2022-12-17T10:06:24.971Z,102242.03
2022-12-17T10:09:14.768Z,102234.91
2022-12-17T10:12:00.151Z,102232.06
2022-12-17T10:14:45.302Z,102230.66
2022-12-17T10:17:39.695Z,102228.47
2022-12-17T10:20:39.543Z,102230.84
2022-12-17T10:23:24.922Z,102237.25
2022-12-17T10:26:14.578Z,102238.66
2022-12-17T10:29:00.056Z,102237.72
2022-12-17T10:31:48.576Z,102247.81
2022-12-17T10:34:37.101Z,102238.91
2022-12-17T10:37:23.586Z,102246.50
2022-12-17T10:40:14.990Z,102251.44
2022-12-17T10:42:59.859Z,102249.91
2022-12-17T10:45:50.965Z,102251.63
2022-12-17T10:48:41.012Z,102253.53
2022-12-17T10:51:55.327Z,102253.09
2022-12-17T10:54:49.652Z,102258.38
2022-12-17T10:57:49.099Z,102248.25
2022-12-17T11:00:37.025Z,102259.03
2022-12-17T11:03:22.872Z,102266.31
2022-12-17T11:06:12.925Z,102264.38
2022-12-17T11:08:59.532Z,102258.38
2022-12-17T11:11:44.741Z,102257.91
2022-12-17T11:14:32.233Z,102266.00
2022-12-17T11:17:23.367Z,102261.53
2022-12-17T11:20:26.734Z,102264.84
2022-12-17T11:23:14.478Z,102275.09
2022-12-17T11:26:08.756Z,102277.38
2022-12-17T11:28:54.410Z,102271.00
2022-12-17T11:32:01.024Z,102282.25
2022-12-17T11:35:23.682Z,102285.97
2022-12-17T11:38:22.816Z,102283.09
2022-12-17T11:41:20.283Z,102280.66
2022-12-17T11:44:31.459Z,102285.50
2022-12-17T11:47:41.703Z,102275.16
2022-12-17T11:50:44.965Z,102273.84
2022-12-17T11:53:38.742Z,102272.75
2022-12-17T11:56:38.728Z,102266.47
2022-12-17T11:59:56.122Z,102253.78
2022-12-17T12:03:12.223Z,102257.03
2022-12-17T12:06:08.424Z,102246.16
2022-12-17T12:09:00.533Z,102245.50
2022-12-17T12:12:00.202Z,102258.09
2022-12-17T12:15:01.791Z,102251.72
2022-12-17T12:18:06.553Z,102249.63
2022-12-17T12:21:18.278Z,102243.09
2022-12-17T12:24:21.968Z,102250.19
2022-12-17T12:27:26.485Z,102244.03
2022-12-17T12:30:21.342Z,102243.63
2022-12-17T12:33:30.126Z,102229.59
2022-12-17T12:36:19.627Z,102230.75
2022-12-17T12:39:12.744Z,102234.31
2022-12-17T12:42:40.140Z,102231.09
2022-12-17T12:45:49.682Z,102240.47
2022-12-17T12:48:57.370Z,102233.38
2022-12-17T12:51:46.852Z,102229.16
2022-12-17T12:54:47.646Z,102238.19
2022-12-17T12:57:52.935Z,102228.91
2022-12-17T13:00:46.177Z,102231.13
2022-12-17T13:03:53.225Z,102223.84
2022-12-17T13:06:38.230Z,102222.34
2022-12-17T13:09:33.882Z,102228.41
2022-12-17T13:12:00.657Z,102234.19
2022-12-17T13:14:31.315Z,102229.59
2022-12-17T13:17:04.493Z,102223.56
2022-12-17T13:19:31.237Z,102217.78
2022-12-17T13:22:26.853Z,102217.53
2022-12-17T13:24:56.833Z,102215.28
2022-12-17T13:27:35.530Z,102215.03
2022-12-17T13:30:20.723Z,102215.72
2022-12-17T13:33:08.328Z,102207.56
2022-12-17T13:35:49.363Z,102209.25
2022-12-17T13:38:22.948Z,102211.38
2022-12-17T13:41:10.488Z,102207.41
2022-12-17T13:43:45.215Z,102208.63
2022-12-17T13:46:26.882Z,102209.53
2022-12-17T13:49:06.657Z,102203.78
2022-12-17T13:51:35.234Z,102208.44
2022-12-17T13:54:04.203Z,102213.13
2022-12-17T13:56:36.181Z,102211.59
2022-12-17T13:59:09.316Z,102215.44
2022-12-17T14:01:45.352Z,102209.56
2022-12-17T14:04:21.535Z,102203.94
2022-12-17T14:06:48.468Z,102205.19
2022-12-17T14:09:20.161Z,102202.25
2022-12-17T14:12:06.718Z,102203.28
2022-12-17T14:14:36.468Z,102200.31
2022-12-17T14:17:03.655Z,102206.97
2022-12-17T14:19:32.040Z,102206.19
2022-12-17T14:21:59.282Z,102203.09
2022-12-17T14:24:29.118Z,102215.16
2022-12-17T14:27:00.675Z,102210.38
2022-12-17T14:29:29.542Z,102221.56
2022-12-17T14:32:01.299Z,102226.19
2022-12-17T14:34:28.036Z,102225.31
2022-12-17T14:37:00.127Z,102220.94
2022-12-17T14:39:32.035Z,102218.41
2022-12-17T14:42:25.566Z,102214.84
2022-12-17T14:45:06.282Z,102207.91
2022-12-17T14:47:34.700Z,102214.09
2022-12-17T14:50:30.361Z,102210.31
2022-12-17T14:52:58.725Z,102210.31
2022-12-17T14:55:55.287Z,102207.03
2022-12-17T14:58:24.626Z,102206.78
2022-12-17T15:01:06.798Z,102208.28
2022-12-17T15:03:39.027Z,102214.97
2022-12-17T15:06:08.400Z,102208.28
2022-12-17T15:08:43.171Z,102211.47
2022-12-17T15:11:15.224Z,102213.66
2022-12-17T15:13:42.393Z,102217.56
2022-12-17T15:16:09.111Z,102222.06
2022-12-17T15:18:35.825Z,102220.66
2022-12-17T15:21:03.298Z,102215.44
2022-12-17T15:23:31.029Z,102224.25
2022-12-17T15:25:57.456Z,102220.81
2022-12-17T15:28:26.894Z,102227.28
2022-12-17T15:30:53.414Z,102233.72
2022-12-17T15:33:19.922Z,102226.97
2022-12-17T15:35:46.391Z,102232.00
2022-12-17T15:38:12.843Z,102231.75
2022-12-17T15:40:39.592Z,102238.03
2022-12-17T15:43:12.276Z,102238.91
2022-12-17T15:45:43.866Z,102237.22
2022-12-17T15:48:12.025Z,102248.38
2022-12-17T15:50:38.836Z,102250.22
2022-12-17T15:53:06.044Z,102251.28
2022-12-17T15:55:32.534Z,102238.66
2022-12-17T15:57:58.967Z,102250.72
2022-12-17T16:00:25.408Z,102252.28
2022-12-17T16:02:52.125Z,102260.28
2022-12-17T16:05:19.534Z,102254.59
2022-12-17T16:07:45.891Z,102255.25
2022-12-17T16:10:13.282Z,102259.88
2022-12-17T16:12:39.898Z,102262.53
2022-12-17T16:15:08.028Z,102264.66
2022-12-17T16:17:34.775Z,102270.66
2022-12-17T16:20:01.247Z,102270.41
2022-12-17T16:22:28.268Z,102271.41
2022-12-17T16:24:55.087Z,102279.63
2022-12-17T16:27:21.690Z,102269.47
2022-12-17T16:29:48.193Z,102262.41
2022-12-17T16:32:15.651Z,102277.06
2022-12-17T16:34:42.361Z,102278.63
2022-12-17T16:37:09.172Z,102279.97
2022-12-17T16:39:35.683Z,102283.50
2022-12-17T16:42:02.181Z,102284.91
2022-12-17T16:44:28.620Z,102281.97
2022-12-17T16:46:55.277Z,102289.38
2022-12-17T16:49:23.737Z,102289.91
2022-12-17T16:51:55.299Z,102286.19
2022-12-17T16:54:26.283Z,102288.31
2022-12-17T16:56:53.224Z,102286.56
2022-12-17T16:59:20.210Z,102290.50
2022-12-17T17:01:48.751Z,102291.16
2022-12-17T17:04:16.668Z,102296.28
2022-12-17T17:06:46.674Z,102297.75
2022-12-17T17:09:14.054Z,102299.09
2022-12-17T17:11:41.065Z,102290.81
2022-12-17T17:14:08.138Z,102298.53
2022-12-17T17:16:35.560Z,102300.22
2022-12-17T17:19:04.996Z,102297.84
2022-12-17T17:21:36.486Z,102292.25
2022-12-17T17:24:20.951Z,102292.53
2022-12-17T17:26:48.371Z,102296.38
2022-12-17T17:29:14.775Z,102302.16
2022-12-17T17:34:27.704Z,102300.38
2022-12-17T17:36:54.065Z,102298.81
2022-12-17T17:39:20.427Z,102297.56
2022-12-17T17:41:46.916Z,102315.44
2022-12-17T17:44:14.149Z,102316.53
2022-12-17T17:46:41.362Z,102322.94
2022-12-17T17:49:08.362Z,102319.78
2022-12-17T17:52:08.431Z,102321.22
2022-12-17T17:54:24.163Z,102310.56
2022-12-17T17:56:50.746Z,102310.78
2022-12-17T17:59:19.282Z,102313.56
2022-12-17T18:01:49.661Z,102319.47
2022-12-17T18:04:19.995Z,102314.41
2022-12-17T18:07:15.969Z,102310.28
2022-12-17T18:09:33.913Z,102318.47
2022-12-17T18:12:20.357Z,102322.09
2022-12-17T18:15:11.877Z,102322.31
2022-12-17T18:17:33.217Z,102321.88
2022-12-17T18:19:59.692Z,102326.06
2022-12-17T18:22:26.118Z,102320.88
2022-12-17T18:24:52.527Z,102326.38
2022-12-17T18:27:18.943Z,102324.91
2022-12-17T18:29:45.345Z,102331.47
2022-12-17T18:32:11.742Z,102335.25
2022-12-17T18:34:38.181Z,102323.69
2022-12-17T18:37:05.192Z,102330.81
2022-12-17T18:39:31.572Z,102331.75
2022-12-17T18:42:16.591Z,102329.78
2022-12-17T18:44:42.988Z,102336.41
2022-12-17T18:47:10.482Z,102329.50
2022-12-17T18:49:37.576Z,102329.84
2022-12-17T18:52:03.991Z,102334.16
2022-12-17T18:54:31.148Z,102338.81
2022-12-17T18:57:02.126Z,102335.66
2022-12-17T18:59:30.304Z,102331.53
2022-12-17T19:01:57.638Z,102334.59
2022-12-17T19:04:25.656Z,102335.44
2022-12-17T19:06:53.734Z,102340.00
2022-12-17T19:09:26.369Z,102342.22
2022-12-17T19:11:53.527Z,102348.25
2022-12-17T19:14:22.402Z,102353.56
2022-12-17T19:16:50.962Z,102359.84
2022-12-17T19:19:18.280Z,102356.22
2022-12-17T19:21:44.710Z,102364.38
2022-12-17T19:24:17.631Z,102357.47
2022-12-17T19:26:44.576Z,102356.56
2022-12-17T19:29:16.571Z,102355.88
2022-12-17T19:31:43.734Z,102351.81
2022-12-17T19:34:12.775Z,102352.78
2022-12-17T19:36:40.745Z,102358.31
2022-12-17T19:39:10.930Z,102355.44
2022-12-17T19:41:37.352Z,102350.34
2022-12-17T19:44:05.967Z,102353.97
2022-12-17T19:46:34.401Z,102353.25
2022-12-17T19:49:03.026Z,102348.19
2022-12-17T19:51:31.404Z,102352.22
2022-12-17T19:54:00.715Z,102352.81
2022-12-17T19:56:31.910Z,102365.03
2022-12-17T19:59:06.750Z,102364.78
2022-12-17T20:01:40.325Z,102367.78
2022-12-17T20:04:06.867Z,102371.91
2022-12-17T20:06:35.064Z,102373.38
2022-12-17T20:09:04.480Z,102379.78
2022-12-17T20:11:34.015Z,102371.41
2022-12-17T20:14:17.657Z,102377.06
2022-12-17T20:16:48.673Z,102374.28
2022-12-17T20:19:18.188Z,102371.53
2022-12-17T20:21:44.872Z,102380.06
2022-12-17T20:24:12.069Z,102381.63
2022-12-17T20:26:39.544Z,102382.94
2022-12-17T20:29:06.887Z,102387.97
2022-12-17T20:31:34.204Z,102384.38
2022-12-17T20:34:01.915Z,102396.31
2022-12-17T20:36:28.345Z,102404.72
2022-12-17T20:38:54.973Z,102400.31
2022-12-17T20:41:26.704Z,102400.38
2022-12-17T20:43:53.509Z,102403.59
2022-12-17T20:46:22.038Z,102400.41
2022-12-17T20:48:48.870Z,102403.59
2022-12-17T20:51:21.500Z,102412.72
2022-12-17T20:53:53.669Z,102405.94
2022-12-17T20:56:26.196Z,102401.94
2022-12-17T20:58:54.778Z,102409.88
2022-12-17T21:01:23.677Z,102415.28
2022-12-17T21:03:51.863Z,102411.06
2022-12-17T21:06:24.282Z,102408.75
2022-12-17T21:08:52.927Z,102396.41
2022-12-17T21:11:22.453Z,102410.41
2022-12-17T21:13:49.054Z,102408.00
2022-12-17T21:16:18.314Z,102411.50
2022-12-17T21:18:45.267Z,102411.28
2022-12-17T21:21:18.481Z,102418.69
2022-12-17T21:23:46.611Z,102430.91
2022-12-17T21:26:20.484Z,102423.19
2022-12-17T21:28:48.572Z,102428.06
2022-12-17T21:31:21.020Z,102411.50
2022-12-17T21:33:48.697Z,102411.50
2022-12-17T21:36:16.834Z,102410.97
2022-12-17T21:38:43.536Z,102414.69
2022-12-17T21:41:12.783Z,102415.84
2022-12-17T21:43:40.329Z,102409.59
2022-12-17T21:46:08.633Z,102405.56
2022-12-17T21:48:41.681Z,102401.75
2022-12-17T21:51:10.616Z,102402.78
2022-12-17T21:53:42.065Z,102411.28
2022-12-17T21:56:11.025Z,102412.34
2022-12-17T21:58:38.088Z,102416.03
2022-12-17T22:01:29.092Z,102411.25
2022-12-17T22:03:57.930Z,102413.72
2022-12-17T22:06:30.221Z,102409.56
2022-12-17T22:09:01.050Z,102425.78
2022-12-17T22:11:33.627Z,102424.19
2022-12-17T22:14:07.371Z,102427.34
2022-12-17T22:16:47.307Z,102421.63
2022-12-17T22:19:21.254Z,102413.69
2022-12-17T22:21:49.985Z,102418.81
2022-12-17T22:24:19.618Z,102409.66
2022-12-17T22:26:46.782Z,102409.66
2022-12-17T22:29:33.834Z,102412.06
2022-12-17T22:32:18.941Z,102414.31
2022-12-17T22:35:17.130Z,102422.75
2022-12-17T22:39:45.781Z,102417.34
2022-12-17T22:43:33.085Z,102429.09
2022-12-17T22:44:52.131Z,102433.94
2022-12-17T22:46:15.695Z,102426.75
2022-12-17T22:48:42.100Z,102430.34
2022-12-17T22:51:10.547Z,102433.56
2022-12-17T22:53:39.618Z,102436.09
2022-12-17T22:56:18.574Z,102433.22
2022-12-17T22:58:53.619Z,102439.72
2022-12-17T23:01:23.142Z,102446.28
2022-12-17T23:03:50.158Z,102446.72
2022-12-17T23:06:18.306Z,102447.56
2022-12-17T23:08:45.201Z,102449.28
2022-12-17T23:11:15.466Z,102449.03
2022-12-17T23:13:42.467Z,102453.06
2022-12-17T23:16:11.334Z,102444.34
2022-12-17T23:18:37.710Z,102448.72
2022-12-17T23:21:30.386Z,102448.72
2022-12-17T23:23:57.787Z,102452.94
2022-12-17T23:26:27.382Z,102447.53
2022-12-17T23:29:07.022Z,102439.66
2022-12-17T23:31:36.546Z,102440.28
2022-12-17T23:34:03.604Z,102443.16
2022-12-17T23:36:30.493Z,102441.34
2022-12-17T23:38:57.357Z,102439.41
2022-12-17T23:41:26.936Z,102440.50
2022-12-17T23:43:53.963Z,102432.66
2022-12-17T23:46:21.426Z,102432.06
2022-12-17T23:48:48.127Z,102434.72
2022-12-17T23:51:17.126Z,102428.63
2022-12-17T23:53:44.147Z,102426.22
2022-12-17T23:56:14.368Z,102432.88
2022-12-17T23:58:42.454Z,102431.81
